createdAt,value
2017-09-14T00:01:48.849Z,99529.54
2017-09-14T00:04:15.089Z,99527.53
2017-09-14T00:06:41.294Z,99523.70
2017-09-14T00:09:07.521Z,99529.95
2017-09-14T00:11:33.774Z,99528.51
2017-09-14T00:13:59.996Z,99525.43
2017-09-14T00:16:26.218Z,99525.70
2017-09-14T00:18:52.461Z,99531.20
2017-09-14T00:21:18.680Z,99525.43
2017-09-14T00:23:44.917Z,99530.49
2017-09-14T00:26:11.144Z,99528.73
2017-09-14T00:28:37.368Z,99528.07
2017-09-14T00:31:03.596Z,99535.67
2017-09-14T00:33:29.832Z,99529.45
2017-09-14T00:35:56.096Z,99524.99
2017-09-14T00:38:22.298Z,99524.47
2017-09-14T00:40:48.528Z,99518.80
2017-09-14T00:43:14.748Z,99523.02
2017-09-14T00:45:40.970Z,99520.13
2017-09-14T00:48:07.211Z,99518.45
2017-09-14T00:50:33.447Z,99514.81
2017-09-14T00:52:59.671Z,99510.45
2017-09-14T00:55:25.916Z,99512.59
2017-09-14T00:57:52.128Z,99514.77
2017-09-14T01:00:18.288Z,99516.83
2017-09-14T01:02:44.497Z,99508.80
2017-09-14T01:05:10.708Z,99506.83
2017-09-14T01:07:36.944Z,99501.96
2017-09-14T01:10:03.155Z,99507.69
2017-09-14T01:12:29.401Z,99507.91
2017-09-14T01:14:55.674Z,99501.95
2017-09-14T01:17:21.844Z,99508.91
2017-09-14T01:19:48.100Z,99502.39
2017-09-14T01:22:14.312Z,99510.63
2017-09-14T01:24:40.550Z,99506.81
2017-09-14T01:27:06.779Z,99509.95
2017-09-14T01:29:33.019Z,99514.63
2017-09-14T01:31:59.255Z,99516.02
2017-09-14T01:34:25.487Z,99508.16
2017-09-14T01:36:51.694Z,99505.94
2017-09-14T01:39:17.939Z,99505.92
2017-09-14T01:41:44.146Z,99504.38
2017-09-14T01:44:10.400Z,99510.63
2017-09-14T01:46:36.602Z,99505.24
2017-09-14T01:49:02.866Z,99506.33
2017-09-14T01:51:29.078Z,99504.92
2017-09-14T01:53:55.310Z,99503.17
2017-09-14T01:56:21.526Z,99509.27
2017-09-14T01:58:47.764Z,99518.81
2017-09-14T02:01:14.001Z,99513.30
2017-09-14T02:03:40.296Z,99516.55
2017-09-14T02:06:06.550Z,99509.02
2017-09-14T02:08:32.785Z,99514.61
2017-09-14T02:10:59.024Z,99508.72
2017-09-14T02:13:25.246Z,99511.80
2017-09-14T02:15:51.486Z,99506.58
2017-09-14T02:18:17.690Z,99517.95
2017-09-14T02:20:43.933Z,99519.31
2017-09-14T02:23:10.178Z,99513.74
2017-09-14T02:25:36.381Z,99515.63
2017-09-14T02:28:02.646Z,99515.88
2017-09-14T02:30:28.877Z,99516.92
2017-09-14T02:32:55.094Z,99513.63
2017-09-14T02:35:21.325Z,99514.17
2017-09-14T02:37:47.538Z,99523.70
2017-09-14T02:40:13.781Z,99517.09
2017-09-14T02:42:40.010Z,99513.99
2017-09-14T02:45:06.227Z,99517.20
2017-09-14T02:47:32.466Z,99509.66
2017-09-14T02:49:58.677Z,99518.39
2017-09-14T02:52:24.941Z,99512.06
2017-09-14T02:54:51.163Z,99515.31
2017-09-14T02:57:17.381Z,99507.52
2017-09-14T02:59:43.611Z,99514.81
2017-09-14T03:02:09.846Z,99515.20
2017-09-14T03:04:36.066Z,99516.81
2017-09-14T03:07:02.306Z,99514.42
2017-09-14T03:09:28.538Z,99512.59
2017-09-14T03:11:54.766Z,99517.48
2017-09-14T03:14:20.999Z,99514.39
2017-09-14T03:16:47.209Z,99519.88
2017-09-14T03:19:13.455Z,99517.88
2017-09-14T03:21:39.678Z,99516.11
2017-09-14T03:24:05.917Z,99517.84
2017-09-14T03:26:32.146Z,99523.40
2017-09-14T03:28:58.372Z,99520.45
2017-09-14T03:31:24.619Z,99512.71
2017-09-14T03:33:50.848Z,99517.89
2017-09-14T03:36:17.059Z,99515.19
2017-09-14T03:38:43.281Z,99514.56
2017-09-14T03:41:09.526Z,99508.25
2017-09-14T03:43:35.741Z,99513.66
2017-09-14T03:46:01.982Z,99513.53
2017-09-14T03:48:28.203Z,99505.84
2017-09-14T03:50:54.440Z,99512.91
2017-09-14T03:53:20.675Z,99511.05
2017-09-14T03:55:46.902Z,99503.14
2017-09-14T03:58:13.141Z,99509.01
2017-09-14T04:00:39.361Z,99510.84
2017-09-14T04:03:05.613Z,99510.06
2017-09-14T04:05:31.818Z,99507.14
2017-09-14T04:07:58.677Z,99501.48
2017-09-14T04:10:24.895Z,99499.08
2017-09-14T04:12:51.126Z,99503.69
2017-09-14T04:15:17.349Z,99502.42
2017-09-14T04:17:43.575Z,99501.84
2017-09-14T04:20:09.825Z,99503.09
2017-09-14T04:22:36.053Z,99501.01
2017-09-14T04:25:02.270Z,99497.22
2017-09-14T04:27:28.508Z,99501.91
2017-09-14T04:29:54.749Z,99501.47
2017-09-14T04:32:20.958Z,99504.19
2017-09-14T04:34:47.178Z,99499.98
2017-09-14T04:37:13.411Z,99498.05
2017-09-14T04:39:39.644Z,99492.98
2017-09-14T04:42:05.894Z,99494.34
2017-09-14T04:44:32.109Z,99488.33
2017-09-14T04:46:58.353Z,99487.70
2017-09-14T04:49:24.595Z,99490.59
2017-09-14T04:51:50.806Z,99488.47
2017-09-14T04:54:17.047Z,99483.73
2017-09-14T04:56:43.261Z,99481.77
2017-09-14T04:59:09.489Z,99476.55
2017-09-14T05:01:35.749Z,99470.19
2017-09-14T05:04:01.929Z,99476.13
2017-09-14T05:06:28.908Z,99471.23
2017-09-14T05:08:55.159Z,99471.58
2017-09-14T05:11:21.356Z,99472.27
2017-09-14T05:13:47.582Z,99471.36
2017-09-14T05:16:13.824Z,99462.95
2017-09-14T05:18:40.039Z,99461.55
2017-09-14T05:21:06.322Z,99460.77
2017-09-14T05:23:32.502Z,99458.09
2017-09-14T05:25:58.732Z,99457.55
2017-09-14T05:28:24.955Z,99460.00
2017-09-14T05:30:51.174Z,99454.10
2017-09-14T05:33:17.403Z,99444.84
2017-09-14T05:35:43.653Z,99442.49
2017-09-14T05:38:09.934Z,99445.89
2017-09-14T05:40:36.221Z,99442.50
2017-09-14T05:43:02.428Z,99441.77
2017-09-14T05:45:28.651Z,99437.20
2017-09-14T05:47:54.893Z,99439.59
2017-09-14T05:50:21.158Z,99439.19
2017-09-14T05:52:47.478Z,99438.88
2017-09-14T05:55:13.685Z,99436.81
2017-09-14T05:57:39.927Z,99430.66
2017-09-14T06:00:06.165Z,99430.10
2017-09-14T06:02:32.381Z,99436.78
2017-09-14T06:05:00.455Z,99434.81
2017-09-14T06:07:26.725Z,99435.98
2017-09-14T06:09:52.911Z,99434.20
2017-09-14T06:12:19.141Z,99435.59
2017-09-14T06:14:45.364Z,99438.79
2017-09-14T06:17:11.601Z,99439.05
2017-09-14T06:19:37.823Z,99433.28
2017-09-14T06:22:04.046Z,99432.05
2017-09-14T06:24:31.115Z,99429.48
2017-09-14T06:26:57.283Z,99429.97
2017-09-14T06:29:23.453Z,99430.17
2017-09-14T06:31:49.697Z,99428.50
2017-09-14T06:34:15.846Z,99423.34
2017-09-14T06:36:42.044Z,99422.45
2017-09-14T06:39:08.280Z,99424.55
2017-09-14T06:41:34.510Z,99421.06
2017-09-14T06:44:00.660Z,99420.67
2017-09-14T06:46:26.863Z,99421.77
2017-09-14T06:48:53.024Z,99419.83
2017-09-14T06:51:19.217Z,99423.92
2017-09-14T06:53:45.452Z,99416.30
2017-09-14T06:56:11.676Z,99412.53
2017-09-14T06:58:37.912Z,99406.69
2017-09-14T07:01:04.140Z,99401.86
2017-09-14T07:03:30.379Z,99401.29
2017-09-14T07:05:56.605Z,99397.04
2017-09-14T07:08:22.843Z,99406.11
2017-09-14T07:10:49.041Z,99399.94
2017-09-14T07:13:15.293Z,99394.88
2017-09-14T07:15:41.507Z,99400.22
2017-09-14T07:18:07.755Z,99397.47
2017-09-14T07:20:33.991Z,99391.89
2017-09-14T07:23:00.225Z,99393.25
2017-09-14T07:25:26.436Z,99387.66
2017-09-14T07:27:52.600Z,99383.13
2017-09-14T07:30:18.751Z,99378.38
2017-09-14T07:32:44.901Z,99380.30
2017-09-14T07:35:11.058Z,99382.81
2017-09-14T07:37:37.214Z,99373.18
2017-09-14T07:40:03.373Z,99366.56
2017-09-14T07:42:29.559Z,99370.82
2017-09-14T07:44:55.732Z,99366.70
2017-09-14T07:47:21.888Z,99363.28
2017-09-14T07:49:48.088Z,99361.22
2017-09-14T07:52:14.223Z,99358.92
2017-09-14T07:54:40.356Z,99350.33
2017-09-14T07:57:06.520Z,99339.49
2017-09-14T07:59:32.683Z,99344.70
2017-09-14T08:01:58.829Z,99339.45
2017-09-14T08:04:24.983Z,99338.45
2017-09-14T08:06:51.130Z,99334.05
2017-09-14T08:09:17.267Z,99339.08
2017-09-14T08:11:43.441Z,99337.59
2017-09-14T08:14:09.592Z,99322.80
2017-09-14T08:16:37.783Z,99323.88
2017-09-14T08:19:03.933Z,99321.38
2017-09-14T08:21:30.099Z,99319.63
2017-09-14T08:23:56.259Z,99326.14
2017-09-14T08:26:22.413Z,99320.77
2017-09-14T08:28:48.570Z,99316.72
2017-09-14T08:31:14.720Z,99314.56
2017-09-14T08:33:40.892Z,99309.70
2017-09-14T08:36:07.064Z,99303.26
2017-09-14T08:38:33.224Z,99302.40
2017-09-14T08:40:59.391Z,99299.56
2017-09-14T08:43:25.561Z,99295.48
2017-09-14T08:45:51.755Z,99284.34
2017-09-14T08:48:17.904Z,99278.84
2017-09-14T08:50:44.053Z,99271.75
2017-09-14T08:53:10.210Z,99272.05
2017-09-14T08:55:36.365Z,99272.93
2017-09-14T08:58:02.525Z,99271.55
2017-09-14T09:00:28.701Z,99273.75
2017-09-14T09:02:54.858Z,99269.53
2017-09-14T09:05:21.032Z,99268.16
2017-09-14T09:07:47.190Z,99266.23
2017-09-14T09:10:13.370Z,99264.70
2017-09-14T09:12:39.524Z,99261.23
2017-09-14T09:15:05.742Z,99252.75
2017-09-14T09:17:31.979Z,99253.04
2017-09-14T09:19:58.465Z,99244.45
2017-09-14T09:22:24.629Z,99247.25
2017-09-14T09:24:50.857Z,99247.19
2017-09-14T09:27:17.098Z,99241.34
2017-09-14T09:29:43.355Z,99234.54
2017-09-14T09:32:09.598Z,99232.44
2017-09-14T09:34:35.892Z,99225.15
2017-09-14T09:37:02.096Z,99216.21
2017-09-14T09:39:28.343Z,99212.46
2017-09-14T09:41:54.691Z,99206.91
2017-09-14T09:44:21.041Z,99212.20
2017-09-14T09:46:47.653Z,99203.77
2017-09-14T09:49:14.259Z,99203.41
2017-09-14T09:51:40.627Z,99198.83
2017-09-14T09:54:06.863Z,99192.34
2017-09-14T09:56:33.200Z,99190.30
2017-09-14T09:58:59.528Z,99182.10
2017-09-14T10:01:25.756Z,99181.16
2017-09-14T10:03:51.985Z,99174.91
2017-09-14T10:06:18.322Z,99177.76
2017-09-14T10:08:44.562Z,99166.73
2017-09-14T10:11:10.803Z,99166.23
2017-09-14T10:13:37.123Z,99169.88
2017-09-14T10:16:03.618Z,99162.34
2017-09-14T10:18:29.989Z,99157.31
2017-09-14T10:20:56.198Z,99144.86
2017-09-14T10:23:22.544Z,99147.87
2017-09-14T10:25:49.403Z,99141.77
2017-09-14T10:28:15.717Z,99143.73
2017-09-14T10:30:41.971Z,99140.87
2017-09-14T10:33:08.265Z,99138.80
2017-09-14T10:35:34.615Z,99127.42
2017-09-14T10:38:00.858Z,99127.05
2017-09-14T10:40:27.091Z,99124.99
2017-09-14T10:42:53.412Z,99115.03
2017-09-14T10:45:19.637Z,99119.39
2017-09-14T10:47:45.972Z,99117.59
2017-09-14T10:50:12.300Z,99108.89
2017-09-14T10:52:38.643Z,99110.67
2017-09-14T10:55:04.966Z,99096.50
2017-09-14T10:57:31.215Z,99088.23
2017-09-14T10:59:58.237Z,99086.35
2017-09-14T11:02:24.565Z,99080.47
2017-09-14T11:04:50.797Z,99071.49
2017-09-14T11:07:17.139Z,99077.84
2017-09-14T11:09:43.466Z,99069.28
2017-09-14T11:12:09.693Z,99064.47
2017-09-14T11:14:37.467Z,99056.80
2017-09-14T11:17:04.626Z,99048.52
2017-09-14T11:19:31.040Z,99043.55
2017-09-14T11:21:57.379Z,99037.69
2017-09-14T11:24:23.779Z,99032.63
2017-09-14T11:26:50.129Z,99030.00
2017-09-14T11:29:16.483Z,99020.58
2017-09-14T11:31:42.791Z,99019.03
2017-09-14T11:34:09.034Z,99012.33
2017-09-14T11:36:35.261Z,99010.26
2017-09-14T11:39:01.479Z,99007.82
2017-09-14T11:41:28.071Z,98997.50
2017-09-14T11:43:54.368Z,98996.84
2017-09-14T11:46:20.767Z,98992.61
2017-09-14T11:48:46.954Z,98983.10
2017-09-14T11:51:13.285Z,98986.64
2017-09-14T11:53:40.202Z,98971.53
2017-09-14T11:56:06.529Z,98969.63
2017-09-14T11:58:33.195Z,98966.70
2017-09-14T12:00:59.995Z,98961.22
2017-09-14T12:13:11.701Z,98946.93
2017-09-14T12:15:37.898Z,98940.31
2017-09-14T12:18:04.229Z,98934.77
2017-09-14T12:20:30.453Z,98929.20
2017-09-14T12:22:56.806Z,98926.48
2017-09-14T12:25:23.233Z,98918.45
2017-09-14T12:27:49.466Z,98917.63
2017-09-14T12:30:15.911Z,98910.47
2017-09-14T12:32:42.659Z,98909.48
2017-09-14T12:35:08.993Z,98907.73
2017-09-14T12:37:36.424Z,98899.75
2017-09-14T12:40:02.876Z,98900.88
2017-09-14T12:42:29.216Z,98895.52
2017-09-14T12:44:55.533Z,98888.58
2017-09-14T12:47:21.868Z,98883.93
2017-09-14T12:49:48.831Z,98877.22
2017-09-14T12:52:15.156Z,98875.16
2017-09-14T12:54:41.695Z,98871.77
2017-09-14T12:57:08.422Z,98865.30
2017-09-14T12:59:35.250Z,98860.19
2017-09-14T13:02:01.489Z,98854.77
2017-09-14T13:04:27.817Z,98849.83
2017-09-14T13:06:54.064Z,98854.66
2017-09-14T13:09:20.395Z,98849.23
2017-09-14T13:11:47.136Z,98848.85
2017-09-14T13:14:13.455Z,98842.08
2017-09-14T13:16:39.793Z,98839.55
2017-09-14T13:19:06.034Z,98832.48
2017-09-14T13:21:33.379Z,98838.66
2017-09-14T13:23:59.727Z,98829.84
2017-09-14T13:26:26.664Z,98827.42
2017-09-14T13:28:53.001Z,98825.33
2017-09-14T13:31:19.229Z,98821.66
2017-09-14T13:33:45.442Z,98813.75
2017-09-14T13:36:11.774Z,98813.74
2017-09-14T13:38:38.116Z,98812.98
2017-09-14T13:41:04.362Z,98810.20
2017-09-14T13:43:30.658Z,98814.44
2017-09-14T13:45:57.437Z,98804.42
2017-09-14T13:48:23.650Z,98801.56
2017-09-14T13:50:49.872Z,98804.91
2017-09-14T13:53:16.729Z,98802.19
2017-09-14T13:55:42.945Z,98795.86
2017-09-14T13:58:09.187Z,98803.06
2017-09-14T14:00:35.415Z,98796.16
2017-09-14T14:03:01.639Z,98788.73
2017-09-14T14:05:27.975Z,98784.47
2017-09-14T14:07:56.200Z,98784.98
2017-09-14T14:10:22.691Z,98782.52
2017-09-14T14:12:49.018Z,98774.33
2017-09-14T14:15:15.246Z,98773.29
2017-09-14T14:17:41.458Z,98771.01
2017-09-14T14:20:07.702Z,98764.69
2017-09-14T14:22:34.024Z,98769.22
2017-09-14T14:25:00.681Z,98762.80
2017-09-14T14:27:27.018Z,98766.28
2017-09-14T14:29:53.442Z,98755.33
2017-09-14T14:32:19.684Z,98757.11
2017-09-14T14:34:45.907Z,98752.67
2017-09-14T14:37:12.238Z,98748.16
2017-09-14T14:39:38.577Z,98745.02
2017-09-14T14:42:04.785Z,98743.84
2017-09-14T14:44:31.018Z,98742.33
2017-09-14T14:46:57.377Z,98742.14
2017-09-14T14:49:23.708Z,98743.86
2017-09-14T14:51:50.031Z,98740.73
2017-09-14T14:54:16.380Z,98738.00
2017-09-14T14:56:42.679Z,98740.80
2017-09-14T14:59:08.900Z,98730.89
2017-09-14T15:01:35.214Z,98726.44
2017-09-14T15:04:01.684Z,98730.09
2017-09-14T15:06:28.025Z,98723.46
2017-09-14T15:08:54.748Z,98722.03
2017-09-14T15:11:21.089Z,98720.73
2017-09-14T15:13:47.455Z,98728.22
2017-09-14T15:16:13.948Z,98720.39
2017-09-14T15:18:40.282Z,98727.72
2017-09-14T15:21:06.836Z,98725.72
2017-09-14T15:23:33.166Z,98717.92
2017-09-14T15:25:59.499Z,98721.17
2017-09-14T15:28:25.720Z,98715.84
2017-09-14T15:30:51.965Z,98711.86
2017-09-14T15:33:18.321Z,98712.80
2017-09-14T15:35:46.150Z,98709.36
2017-09-14T15:38:12.466Z,98705.36
2017-09-14T15:40:38.825Z,98708.24
2017-09-14T15:43:05.059Z,98704.50
2017-09-14T15:45:31.496Z,98707.75
2017-09-14T15:47:57.843Z,98706.81
2017-09-14T15:50:24.155Z,98705.95
2017-09-14T15:52:50.595Z,98701.68
2017-09-14T15:55:16.916Z,98707.59
2017-09-14T15:57:43.159Z,98708.11
2017-09-14T16:00:09.368Z,98707.42
2017-09-14T16:02:35.863Z,98700.97
2017-09-14T16:05:02.249Z,98704.70
2017-09-14T16:07:28.793Z,98699.19
2017-09-14T16:09:55.013Z,98700.70
2017-09-14T16:12:21.464Z,98699.22
2017-09-14T16:14:47.604Z,98708.88
2017-09-14T16:17:13.863Z,98697.17
2017-09-14T16:19:40.103Z,98703.57
2017-09-14T16:22:06.536Z,98695.23
2017-09-14T16:24:32.854Z,98697.68
2017-09-14T16:26:59.252Z,98698.59
2017-09-14T16:29:25.621Z,98696.53
2017-09-14T16:31:51.864Z,98695.84
2017-09-14T16:34:18.039Z,98693.84
2017-09-14T16:36:44.569Z,98693.88
2017-09-14T16:39:11.091Z,98690.36
2017-09-14T16:41:37.396Z,98694.62
2017-09-14T16:44:04.281Z,98698.30
2017-09-14T16:46:31.327Z,98703.08
2017-09-14T16:48:57.574Z,98706.89
2017-09-14T16:51:23.790Z,98699.84
2017-09-14T16:53:50.106Z,98697.20
2017-09-14T16:56:16.453Z,98703.24
2017-09-14T16:58:43.407Z,98706.41
2017-09-14T17:01:09.825Z,98704.63
2017-09-14T17:03:36.159Z,98710.20
2017-09-14T17:06:02.514Z,98707.49
2017-09-14T17:08:28.738Z,98724.94
2017-09-14T17:10:55.045Z,98718.83
2017-09-14T17:13:21.398Z,98725.25
2017-09-14T17:15:47.739Z,98728.16
2017-09-14T17:18:14.065Z,98735.84
2017-09-14T17:20:40.430Z,98736.86
2017-09-14T17:23:07.479Z,98739.12
2017-09-14T17:25:33.697Z,98750.25
2017-09-14T17:28:00.110Z,98747.84
2017-09-14T17:30:26.443Z,98748.91
2017-09-14T17:32:52.766Z,98748.72
2017-09-14T17:35:19.823Z,98748.27
2017-09-14T17:37:46.059Z,98749.45
2017-09-14T17:40:12.784Z,98754.98
2017-09-14T17:42:38.990Z,98753.23
2017-09-14T17:45:05.348Z,98761.68
2017-09-14T17:47:32.075Z,98763.14
2017-09-14T17:49:58.416Z,98768.67
2017-09-14T17:52:24.671Z,98769.13
2017-09-14T17:54:51.704Z,98772.98
2017-09-14T17:57:18.014Z,98772.36
2017-09-14T17:59:45.119Z,98773.55
2017-09-14T18:02:11.844Z,98770.63
2017-09-14T18:04:38.166Z,98776.77
2017-09-14T18:07:05.009Z,98770.84
2017-09-14T18:09:31.335Z,98771.55
2017-09-14T18:11:57.692Z,98777.47
2017-09-14T18:14:23.991Z,98780.08
2017-09-14T18:16:50.232Z,98776.75
2017-09-14T18:19:16.552Z,98781.05
2017-09-14T18:21:43.402Z,98775.20
2017-09-14T18:24:09.825Z,98783.83
2017-09-14T18:26:36.059Z,98786.19
2017-09-14T18:29:02.298Z,98788.52
2017-09-14T18:31:29.142Z,98785.67
2017-09-14T18:33:55.379Z,98784.91
2017-09-14T18:36:21.790Z,98790.13
2017-09-14T18:38:48.370Z,98780.98
2017-09-14T18:41:14.663Z,98784.94
2017-09-14T18:43:40.891Z,98787.27
2017-09-14T18:46:07.338Z,98781.53
2017-09-14T18:48:33.666Z,98789.91
2017-09-14T18:51:00.101Z,98780.86
2017-09-14T18:53:26.442Z,98780.59
2017-09-14T18:55:52.811Z,98780.07
2017-09-14T18:58:19.705Z,98782.56
2017-09-14T19:00:46.035Z,98784.13
2017-09-14T19:03:12.373Z,98780.18
2017-09-14T19:05:38.707Z,98776.88
2017-09-14T19:08:04.944Z,98779.90
2017-09-14T19:10:31.373Z,98777.82
2017-09-14T19:12:58.319Z,98775.39
2017-09-14T19:15:24.645Z,98775.98
2017-09-14T19:17:50.972Z,98775.78
2017-09-14T19:20:17.213Z,98775.11
2017-09-14T19:22:43.441Z,98771.23
2017-09-14T19:25:09.985Z,98776.23
2017-09-14T19:27:36.296Z,98776.91
2017-09-14T19:30:02.631Z,98769.78
2017-09-14T19:32:28.976Z,98778.23
2017-09-14T19:34:55.820Z,98778.27
2017-09-14T19:37:22.051Z,98769.88
2017-09-14T19:39:48.393Z,98772.84
2017-09-14T19:42:14.723Z,98767.89
2017-09-14T19:44:41.166Z,98770.45
2017-09-14T19:47:08.434Z,98768.97
2017-09-14T19:49:34.844Z,98773.97
2017-09-14T19:52:01.888Z,98767.53
2017-09-14T19:54:28.535Z,98776.05
2017-09-14T19:56:54.964Z,98773.63
2017-09-14T19:59:21.305Z,98779.33
2017-09-14T20:01:47.628Z,98778.41
2017-09-14T20:04:14.022Z,98780.87
2017-09-14T20:06:40.396Z,98773.42
2017-09-14T20:09:06.631Z,98778.81
2017-09-14T20:11:33.361Z,98776.80
2017-09-14T20:13:59.585Z,98786.02
2017-09-14T20:16:25.779Z,98780.11
2017-09-14T20:18:52.049Z,98787.69
2017-09-14T20:21:18.205Z,98786.23
2017-09-14T20:23:44.546Z,98781.42
2017-09-14T20:26:10.852Z,98785.73
2017-09-14T20:28:37.276Z,98784.78
2017-09-14T20:31:03.626Z,98790.77
2017-09-14T20:33:30.774Z,98785.98
2017-09-14T20:35:57.056Z,98790.92
2017-09-14T20:38:23.467Z,98784.13
2017-09-14T20:40:50.605Z,98780.59
2017-09-14T20:43:16.907Z,98777.52
2017-09-14T20:45:43.247Z,98778.16
2017-09-14T20:48:09.669Z,98777.22
2017-09-14T20:50:35.994Z,98771.78
2017-09-14T20:53:02.228Z,98772.05
2017-09-14T20:55:28.671Z,98773.64
2017-09-14T20:57:54.994Z,98771.09
2017-09-14T21:00:21.318Z,98774.40
2017-09-14T21:02:47.659Z,98772.13
2017-09-14T21:05:14.371Z,98766.45
2017-09-14T21:07:40.744Z,98767.88
2017-09-14T21:10:07.066Z,98767.44
2017-09-14T21:12:33.300Z,98762.95
2017-09-14T21:14:59.612Z,98761.10
2017-09-14T21:17:26.497Z,98762.12
2017-09-14T21:19:53.108Z,98760.80
2017-09-14T21:22:19.647Z,98762.07
2017-09-14T21:24:46.301Z,98762.65
2017-09-14T21:27:13.134Z,98764.63
2017-09-14T21:29:39.465Z,98754.59
2017-09-14T21:32:06.212Z,98746.46
2017-09-14T21:34:32.457Z,98745.59
2017-09-14T21:36:58.667Z,98745.63
2017-09-14T21:39:24.983Z,98745.73
2017-09-14T21:41:51.310Z,98739.30
2017-09-14T21:44:18.269Z,98734.45
2017-09-14T21:46:44.814Z,98736.67
2017-09-14T21:49:11.156Z,98731.39
2017-09-14T21:51:37.469Z,98731.00
2017-09-14T21:54:03.715Z,98735.37
2017-09-14T21:56:30.041Z,98724.12
2017-09-14T21:58:56.399Z,98724.11
2017-09-14T22:01:22.803Z,98723.75
2017-09-14T22:03:49.146Z,98724.92
2017-09-14T22:06:15.851Z,98725.02
2017-09-14T22:08:42.252Z,98720.69
2017-09-14T22:11:08.753Z,98713.67
2017-09-14T22:13:35.079Z,98716.50
2017-09-14T22:16:01.418Z,98707.81
2017-09-14T22:18:28.058Z,98720.85
2017-09-14T22:20:54.381Z,98714.52
2017-09-14T22:23:20.685Z,98717.73
2017-09-14T22:25:47.062Z,98719.22
2017-09-14T22:28:13.388Z,98716.53
2017-09-14T22:30:39.711Z,98716.28
2017-09-14T22:33:06.043Z,98719.05
2017-09-14T22:35:32.691Z,98714.33
2017-09-14T22:37:59.844Z,98715.70
2017-09-14T22:40:26.279Z,98722.67
2017-09-14T22:42:52.600Z,98715.59
2017-09-14T22:45:19.447Z,98720.11
2017-09-14T22:47:45.786Z,98715.92
2017-09-14T22:50:12.347Z,98712.27
2017-09-14T22:52:38.747Z,98713.77
2017-09-14T22:55:05.097Z,98707.11
2017-09-14T22:57:31.724Z,98715.56
2017-09-14T22:59:57.950Z,98716.41
2017-09-14T23:02:24.285Z,98710.20
2017-09-14T23:04:50.623Z,98711.53
2017-09-14T23:07:16.853Z,98705.08
2017-09-14T23:09:43.181Z,98710.72
2017-09-14T23:12:09.509Z,98711.36
2017-09-14T23:14:36.050Z,98704.77
2017-09-14T23:17:02.367Z,98718.53
2017-09-14T23:19:28.822Z,98709.38
2017-09-14T23:21:55.337Z,98711.76
2017-09-14T23:24:21.689Z,98711.69
2017-09-14T23:26:48.149Z,98707.81
2017-09-14T23:29:14.465Z,98714.78
2017-09-14T23:31:40.682Z,98710.66
2017-09-14T23:34:07.009Z,98708.81
2017-09-14T23:36:33.451Z,98712.60
2017-09-14T23:38:59.676Z,98715.52
2017-09-14T23:41:26.012Z,98714.09
2017-09-14T23:43:52.324Z,98715.88
2017-09-14T23:46:18.564Z,98719.97
2017-09-14T23:48:44.990Z,98716.22
2017-09-14T23:51:11.313Z,98712.48
2017-09-14T23:53:37.868Z,98716.26
2017-09-14T23:56:04.193Z,98711.55
2017-09-14T23:58:30.743Z,98710.72
